Time;durP1;ratioP1;P1;durP2;ratioP2;P2;SDS_P1;SDS_P2;PMS_P1;PMS_P2;Temp;Humidity;BMP_temperature;BMP_pressure;BME280_temperature;BME280_humidity;BME280_pressure;Samples;Min_cycle;Max_cycle;Signal;HPM_P1;HPM_P2
2021/09/24 00:02:15;;;;;;;4.53;4.10;;;;;;;;;;5030071;28;20480;-74
2021/09/24 00:04:41;;;;;;;4.10;3.70;;;;;;;;;;5041788;28;20851;-73
2021/09/24 00:07:07;;;;;;;3.87;3.43;;;;;;;;;;5030139;28;20443;-72
2021/09/24 00:09:33;;;;;;;4.70;4.30;;;;;;;;;;5029667;28;20443;-73
2021/09/24 00:11:59;;;;;;;4.53;3.63;;;;;;;;;;5028729;28;20435;-73
2021/09/24 00:14:25;;;;;;;5.00;4.00;;;;;;;;;;5029266;28;20439;-73
2021/09/24 00:16:51;;;;;;;4.27;3.47;;;;;;;;;;5029824;28;20814;-73
2021/09/24 00:19:17;;;;;;;3.63;3.33;;;;;;;;;;5045033;28;20443;-73
2021/09/24 00:21:43;;;;;;;4.73;3.70;;;;;;;;;;5029251;28;20517;-74
2021/09/24 00:24:09;;;;;;;4.37;3.70;;;;;;;;;;5029092;28;20423;-73
2021/09/24 00:26:35;;;;;;;4.30;3.80;;;;;;;;;;5029119;28;20977;-73
2021/09/24 00:29:01;;;;;;;4.30;3.70;;;;;;;;;;5030234;28;20435;-73
2021/09/24 00:31:27;;;;;;;5.20;3.63;;;;;;;;;;5030255;28;20440;-73
2021/09/24 00:33:53;;;;;;;4.00;3.60;;;;;;;;;;5029879;28;20489;-73
2021/09/24 00:36:19;;;;;;;5.53;4.87;;;;;;;;;;5030026;28;20431;-73
2021/09/24 00:38:45;;;;;;;4.57;3.93;;;;;;;;;;5030258;28;20514;-73
2021/09/24 00:41:11;;;;;;;4.23;3.67;;;;;;;;;;5029159;28;20872;-73
2021/09/24 00:43:37;;;;;;;4.33;3.93;;;;;;;;;;5029376;28;20487;-73
2021/09/24 00:46:04;;;;;;;4.43;4.03;;;;;;;;;;5028797;28;20471;-73
2021/09/24 00:48:30;;;;;;;4.90;4.50;;;;;;;;;;5029994;28;20438;-73
2021/09/24 00:50:56;;;;;;;7.73;4.33;;;;;;;;;;5029516;28;20741;-72
2021/09/24 00:53:23;;;;;;;5.70;4.10;;;;;;;;;;5029436;28;20438;-73
2021/09/24 00:55:49;;;;;;;5.37;4.27;;;;;;;;;;5029043;28;20436;-73
2021/09/24 00:58:15;;;;;;;3.93;3.63;;;;;;;;;;5029670;28;20427;-73
2021/09/24 01:00:41;;;;;;;4.60;4.20;;;;;;;;;;5028793;28;20447;-73
2021/09/24 01:03:07;;;;;;;5.50;4.87;;;;;;;;;;5029327;28;20428;-72
2021/09/24 01:05:33;;;;;;;5.93;4.70;;;;;;;;;;5042847;28;20836;-73
2021/09/24 01:08:01;;;;;;;10.23;4.80;;;;;;;;;;5029343;28;20423;-72
2021/09/24 01:10:27;;;;;;;7.17;5.27;;;;;;;;;;5029704;28;20466;-74
2021/09/24 01:12:53;;;;;;;6.03;4.40;;;;;;;;;;5027992;28;20420;-73
2021/09/24 01:15:20;;;;;;;7.90;4.70;;;;;;;;;;5029600;28;20914;-73
2021/09/24 01:17:47;;;;;;;6.70;4.37;;;;;;;;;;5029476;28;20440;-73
2021/09/24 01:20:14;;;;;;;4.70;4.20;;;;;;;;;;5029121;28;20431;-73
2021/09/24 01:22:40;;;;;;;6.43;4.80;;;;;;;;;;5031802;28;20485;-73
2021/09/24 01:25:07;;;;;;;6.10;4.70;;;;;;;;;;5032933;28;20954;-72
2021/09/24 01:27:34;;;;;;;4.93;3.90;;;;;;;;;;5032941;28;20427;-72
2021/09/24 01:30:00;;;;;;;4.93;4.43;;;;;;;;;;5033078;28;20740;-73
2021/09/24 01:32:26;;;;;;;6.80;4.10;;;;;;;;;;5032452;28;20489;-73
2021/09/24 01:34:52;;;;;;;5.70;4.50;;;;;;;;;;5033086;28;20436;-73
2021/09/24 01:37:18;;;;;;;7.57;5.13;;;;;;;;;;5029498;28;20744;-73
2021/09/24 01:39:44;;;;;;;7.87;4.53;;;;;;;;;;5032681;28;20784;-73
2021/09/24 01:42:10;;;;;;;5.33;4.33;;;;;;;;;;5032628;28;20780;-72
2021/09/24 01:44:36;;;;;;;6.40;4.63;;;;;;;;;;5032415;28;20829;-73
2021/09/24 01:47:03;;;;;;;5.83;4.90;;;;;;;;;;5032580;28;20431;-73
2021/09/24 01:49:28;;;;;;;7.47;5.13;;;;;;;;;;5030457;28;20847;-73
2021/09/24 01:51:54;;;;;;;5.00;4.20;;;;;;;;;;5032172;28;20527;-73
2021/09/24 01:54:21;;;;;;;7.50;4.67;;;;;;;;;;5046720;28;20506;-73
2021/09/24 01:56:47;;;;;;;7.97;4.90;;;;;;;;;;5033034;28;20446;-73
2021/09/24 01:59:13;;;;;;;6.87;5.00;;;;;;;;;;5032181;28;20989;-73
2021/09/24 02:01:40;;;;;;;5.20;4.30;;;;;;;;;;5032471;28;20844;-72
2021/09/24 02:04:06;;;;;;;6.50;4.70;;;;;;;;;;5032904;28;20447;-72
2021/09/24 02:06:32;;;;;;;5.33;4.47;;;;;;;;;;5032245;28;20475;-73
2021/09/24 02:08:58;;;;;;;5.40;4.50;;;;;;;;;;5032122;28;20438;-73
2021/09/24 02:11:24;;;;;;;5.70;4.00;;;;;;;;;;5030811;28;20843;-73
2021/09/24 02:13:50;;;;;;;6.63;4.50;;;;;;;;;;5032376;28;20493;-73
2021/09/24 02:16:16;;;;;;;7.67;4.83;;;;;;;;;;5031606;28;20432;-73
2021/09/24 02:18:42;;;;;;;4.47;3.83;;;;;;;;;;5032349;28;20802;-73
2021/09/24 02:21:08;;;;;;;7.57;4.30;;;;;;;;;;5032521;28;20478;-73
2021/09/24 02:23:35;;;;;;;5.20;4.70;;;;;;;;;;5031663;28;20790;-73
2021/09/24 02:26:02;;;;;;;5.43;4.33;;;;;;;;;;5031140;28;20550;-73
2021/09/24 02:28:28;;;;;;;6.23;5.17;;;;;;;;;;5032783;28;20531;-73
2021/09/24 02:30:54;;;;;;;5.10;4.50;;;;;;;;;;5031368;28;20990;-73
2021/09/24 02:33:20;;;;;;;7.73;4.17;;;;;;;;;;5031203;28;20436;-72
2021/09/24 02:35:46;;;;;;;5.13;4.57;;;;;;;;;;5031523;28;20435;-73
2021/09/24 02:38:12;;;;;;;6.87;4.70;;;;;;;;;;5030881;28;20436;-74
2021/09/24 02:40:38;;;;;;;5.10;4.60;;;;;;;;;;5047157;28;20436;-73
2021/09/24 02:43:04;;;;;;;7.73;4.90;;;;;;;;;;5031041;28;20427;-73
2021/09/24 02:45:30;;;;;;;5.27;4.83;;;;;;;;;;5031386;28;20487;-73
2021/09/24 02:47:56;;;;;;;6.67;4.30;;;;;;;;;;5031906;28;20451;-73
2021/09/24 02:50:22;;;;;;;7.33;3.50;;;;;;;;;;5031943;28;20470;-73
2021/09/24 02:52:48;;;;;;;4.53;4.13;;;;;;;;;;5031757;28;20434;-73
2021/09/24 02:55:15;;;;;;;4.97;4.47;;;;;;;;;;5032010;28;20424;-73
2021/09/24 02:57:41;;;;;;;4.63;4.23;;;;;;;;;;5031567;28;20929;-73
2021/09/24 03:00:07;;;;;;;5.00;4.60;;;;;;;;;;5031252;28;20446;-73
2021/09/24 03:02:35;;;;;;;5.47;4.97;;;;;;;;;;5031326;28;20435;-73
2021/09/24 03:05:01;;;;;;;5.30;4.80;;;;;;;;;;5026140;28;20868;-73
2021/09/24 03:07:27;;;;;;;4.97;4.47;;;;;;;;;;5031493;28;20439;-73
2021/09/24 03:09:53;;;;;;;7.70;5.40;;;;;;;;;;5046222;28;20756;-73
2021/09/24 03:12:19;;;;;;;5.10;4.60;;;;;;;;;;5029990;28;20906;-74
2021/09/24 03:14:45;;;;;;;6.00;4.90;;;;;;;;;;5030976;28;20466;-72
2021/09/24 03:17:11;;;;;;;6.13;4.30;;;;;;;;;;5030941;28;20439;-73
2021/09/24 03:19:37;;;;;;;6.00;4.80;;;;;;;;;;5030640;28;20462;-73
2021/09/24 03:22:03;;;;;;;9.30;5.90;;;;;;;;;;5044230;28;20440;-73
2021/09/24 03:24:29;;;;;;;7.13;4.93;;;;;;;;;;5030606;28;20458;-73
2021/09/24 03:26:55;;;;;;;5.90;4.80;;;;;;;;;;5030406;28;20439;-74
2021/09/24 03:29:21;;;;;;;4.40;4.00;;;;;;;;;;5030853;28;20428;-73
2021/09/24 03:31:48;;;;;;;5.90;5.30;;;;;;;;;;5029025;28;20477;-72
2021/09/24 03:34:14;;;;;;;4.90;4.40;;;;;;;;;;5044149;28;20436;-71
2021/09/24 03:36:40;;;;;;;5.60;4.97;;;;;;;;;;5030479;28;20523;-72
2021/09/24 03:39:10;;;;;;;5.50;5.00;;;;;;;;;;5026677;28;20443;-73
2021/09/24 03:41:36;;;;;;;6.83;5.10;;;;;;;;;;5030148;28;20463;-73
2021/09/24 03:44:03;;;;;;;5.57;5.00;;;;;;;;;;5030192;28;20471;-73
2021/09/24 03:46:29;;;;;;;5.30;4.80;;;;;;;;;;5028983;28;20467;-73
2021/09/24 03:48:54;;;;;;;5.43;4.97;;;;;;;;;;5028627;28;20495;-73
2021/09/24 03:51:20;;;;;;;6.40;5.80;;;;;;;;;;5046195;28;20451;-73
2021/09/24 03:53:46;;;;;;;5.73;5.13;;;;;;;;;;5030472;28;20432;-73
2021/09/24 03:56:12;;;;;;;5.40;4.90;;;;;;;;;;5030414;28;20452;-73
2021/09/24 03:58:38;;;;;;;7.40;4.80;;;;;;;;;;5045302;28;20942;-73
2021/09/24 04:01:04;;;;;;;6.27;5.33;;;;;;;;;;5030207;28;20448;-72
2021/09/24 04:03:30;;;;;;;5.00;4.50;;;;;;;;;;5030420;28;20526;-72
2021/09/24 04:05:56;;;;;;;7.00;4.90;;;;;;;;;;5030163;28;20574;-73
2021/09/24 04:08:22;;;;;;;6.47;4.80;;;;;;;;;;5030475;28;20885;-73
2021/09/24 04:10:48;;;;;;;5.60;5.10;;;;;;;;;;5028389;28;20505;-74
2021/09/24 04:13:14;;;;;;;6.50;5.30;;;;;;;;;;5029940;28;20436;-72
2021/09/24 04:15:41;;;;;;;5.83;4.80;;;;;;;;;;5030045;28;20435;-72
2021/09/24 04:18:07;;;;;;;7.70;6.10;;;;;;;;;;5045608;28;20534;-72
2021/09/24 04:20:33;;;;;;;6.10;5.50;;;;;;;;;;5030330;28;20507;-73
2021/09/24 04:22:59;;;;;;;6.87;5.03;;;;;;;;;;5029595;28;20454;-73
2021/09/24 04:25:25;;;;;;;6.67;4.97;;;;;;;;;;5029652;28;20479;-73
2021/09/24 04:27:51;;;;;;;6.40;4.40;;;;;;;;;;5044205;28;20530;-73
2021/09/24 04:30:17;;;;;;;5.03;4.53;;;;;;;;;;5029921;28;20440;-73
2021/09/24 04:32:43;;;;;;;9.90;5.67;;;;;;;;;;5029835;28;20923;-73
2021/09/24 04:35:09;;;;;;;8.67;5.80;;;;;;;;;;5029680;28;20490;-74
2021/09/24 04:37:35;;;;;;;6.13;5.57;;;;;;;;;;5042771;28;20864;-73
2021/09/24 04:40:01;;;;;;;9.10;5.43;;;;;;;;;;5029347;28;20474;-74
2021/09/24 04:42:28;;;;;;;6.10;5.50;;;;;;;;;;5029285;28;20527;-73
2021/09/24 04:44:54;;;;;;;6.87;5.37;;;;;;;;;;5029130;28;20499;-73
2021/09/24 04:47:20;;;;;;;7.13;5.23;;;;;;;;;;5029205;28;20513;-73
2021/09/24 04:49:46;;;;;;;6.10;5.50;;;;;;;;;;5029438;28;20432;-73
2021/09/24 04:52:12;;;;;;;7.47;5.60;;;;;;;;;;5028957;28;20528;-73
2021/09/24 04:54:38;;;;;;;5.83;5.23;;;;;;;;;;5028830;28;20430;-73
2021/09/24 04:57:04;;;;;;;6.00;5.37;;;;;;;;;;5028458;28;20451;-73
2021/09/24 04:59:30;;;;;;;5.70;5.07;;;;;;;;;;5026236;28;21609;-73
2021/09/24 05:01:56;;;;;;;6.67;5.13;;;;;;;;;;5027669;28;20440;-73
2021/09/24 05:04:22;;;;;;;6.40;5.80;;;;;;;;;;5029379;28;20435;-73
2021/09/24 05:06:48;;;;;;;6.47;5.70;;;;;;;;;;5029079;28;20485;-73
2021/09/24 05:09:14;;;;;;;7.10;5.70;;;;;;;;;;5028739;28;20530;-73
2021/09/24 05:11:40;;;;;;;8.43;6.07;;;;;;;;;;5028791;28;20444;-72
2021/09/24 05:14:06;;;;;;;5.40;4.90;;;;;;;;;;5025742;28;20996;-73
2021/09/24 05:16:32;;;;;;;7.53;5.90;;;;;;;;;;5028013;28;20468;-72
2021/09/24 05:18:58;;;;;;;5.90;5.30;;;;;;;;;;5028528;28;20557;-73
2021/09/24 05:21:24;;;;;;;5.93;5.40;;;;;;;;;;5028849;28;20446;-73
2021/09/24 05:23:50;;;;;;;6.70;5.23;;;;;;;;;;5042280;28;20793;-74
2021/09/24 05:26:16;;;;;;;6.20;5.20;;;;;;;;;;5027903;28;20487;-73
2021/09/24 05:28:42;;;;;;;5.73;5.13;;;;;;;;;;5029105;28;20906;-72
2021/09/24 05:31:08;;;;;;;5.60;5.07;;;;;;;;;;5028520;28;20439;-72
2021/09/24 05:33:34;;;;;;;6.70;5.07;;;;;;;;;;5028669;28;20462;-72
2021/09/24 05:36:00;;;;;;;6.00;4.93;;;;;;;;;;5029370;28;20435;-73
2021/09/24 05:38:26;;;;;;;5.93;5.30;;;;;;;;;;5029611;28;20533;-73
2021/09/24 05:40:52;;;;;;;6.30;5.27;;;;;;;;;;5028285;28;20452;-72
2021/09/24 05:43:18;;;;;;;6.73;5.43;;;;;;;;;;5042466;28;20443;-73
2021/09/24 05:45:44;;;;;;;8.00;6.40;;;;;;;;;;5029110;28;20523;-73
2021/09/24 05:48:10;;;;;;;5.60;5.10;;;;;;;;;;5028980;28;20430;-73
2021/09/24 05:50:36;;;;;;;5.60;5.00;;;;;;;;;;5028486;28;20548;-73
2021/09/24 05:53:02;;;;;;;5.83;5.23;;;;;;;;;;5042329;28;20950;-73
2021/09/24 05:55:29;;;;;;;5.80;5.20;;;;;;;;;;5029109;28;20958;-74
2021/09/24 05:57:55;;;;;;;6.10;4.90;;;;;;;;;;5028435;28;20431;-72
2021/09/24 06:00:22;;;;;;;8.07;6.07;;;;;;;;;;5028073;28;20428;-73
2021/09/24 06:02:49;;;;;;;7.90;5.50;;;;;;;;;;5029310;28;20423;-73
2021/09/24 06:05:16;;;;;;;5.63;5.00;;;;;;;;;;5029346;28;20876;-73
2021/09/24 06:07:45;;;;;;;5.83;5.13;;;;;;;;;;5028559;28;20478;-72
2021/09/24 06:10:11;;;;;;;6.10;5.57;;;;;;;;;;5031483;28;20475;-72
2021/09/24 06:12:37;;;;;;;5.90;5.40;;;;;;;;;;5031712;28;20444;-73
2021/09/24 06:15:04;;;;;;;5.30;4.80;;;;;;;;;;5047421;28;20439;-72
2021/09/24 06:17:30;;;;;;;9.47;5.60;;;;;;;;;;5031982;28;20455;-72
2021/09/24 06:19:56;;;;;;;6.27;5.67;;;;;;;;;;5031606;28;20818;-72
2021/09/24 06:22:23;;;;;;;17.40;5.37;;;;;;;;;;5031316;28;20443;-73
2021/09/24 06:24:49;;;;;;;7.00;6.40;;;;;;;;;;5032099;28;20479;-72
2021/09/24 06:27:15;;;;;;;6.33;5.73;;;;;;;;;;5032664;28;20865;-73
2021/09/24 06:29:42;;;;;;;5.73;5.13;;;;;;;;;;5032179;28;20525;-74
2021/09/24 06:32:08;;;;;;;7.10;4.80;;;;;;;;;;5031908;28;20479;-73
2021/09/24 06:34:35;;;;;;;5.50;4.90;;;;;;;;;;5032318;28;20431;-73
2021/09/24 06:37:01;;;;;;;6.80;5.43;;;;;;;;;;5032146;28;20492;-73
2021/09/24 06:39:27;;;;;;;11.27;5.93;;;;;;;;;;5040003;28;20526;-72
2021/09/24 06:41:53;;;;;;;6.00;5.10;;;;;;;;;;5031617;28;20440;-72
2021/09/24 06:44:20;;;;;;;6.27;5.60;;;;;;;;;;5031934;28;20487;-73
2021/09/24 06:46:46;;;;;;;8.50;5.40;;;;;;;;;;5031744;28;20487;-71
2021/09/24 06:49:13;;;;;;;5.77;5.07;;;;;;;;;;5030554;28;20458;-71
2021/09/24 06:51:39;;;;;;;7.83;5.37;;;;;;;;;;5030469;28;20571;-72
2021/09/24 06:54:05;;;;;;;6.30;5.70;;;;;;;;;;5031333;28;20424;-72
2021/09/24 06:56:31;;;;;;;5.13;4.63;;;;;;;;;;5031833;28;20489;-72
2021/09/24 06:58:59;;;;;;;6.43;4.90;;;;;;;;;;5032077;28;20436;-72
2021/09/24 07:01:25;;;;;;;6.00;5.40;;;;;;;;;;5031572;28;20435;-72
2021/09/24 07:03:51;;;;;;;5.00;4.50;;;;;;;;;;5032038;28;20954;-72
2021/09/24 07:06:17;;;;;;;8.90;4.83;;;;;;;;;;5032041;28;20479;-73
2021/09/24 07:08:43;;;;;;;5.37;4.70;;;;;;;;;;5031669;28;20930;-72
2021/09/24 07:11:09;;;;;;;7.50;4.97;;;;;;;;;;5028527;28;20454;-72
2021/09/24 07:13:35;;;;;;;5.10;4.67;;;;;;;;;;5029295;28;20510;-69
2021/09/24 07:16:02;;;;;;;6.60;5.50;;;;;;;;;;5030505;28;20819;-73
2021/09/24 07:20:54;;;;;;;5.53;5.03;;;;;;;;;;5050201;28;20591;-69
2021/09/24 07:23:20;;;;;;;6.40;4.93;;;;;;;;;;5047220;28;20438;-74
2021/09/24 07:25:46;;;;;;;5.50;4.97;;;;;;;;;;5046105;28;20447;-66
2021/09/24 07:28:12;;;;;;;6.10;5.47;;;;;;;;;;5052876;28;20434;-68
2021/09/24 07:30:38;;;;;;;5.80;5.30;;;;;;;;;;5046217;28;20442;-72
2021/09/24 07:33:04;;;;;;;5.83;5.30;;;;;;;;;;5034775;28;20442;-73
2021/09/24 07:35:30;;;;;;;5.27;4.87;;;;;;;;;;5048621;28;20760;-73
2021/09/24 07:37:56;;;;;;;5.93;4.90;;;;;;;;;;5050746;28;20438;-73
2021/09/24 07:40:22;;;;;;;6.17;5.03;;;;;;;;;;5048290;28;20490;-74
2021/09/24 07:42:48;;;;;;;5.60;5.10;;;;;;;;;;5050407;28;20439;-74
2021/09/24 07:45:14;;;;;;;5.20;4.80;;;;;;;;;;5049266;28;20720;-72
2021/09/24 07:47:40;;;;;;;5.27;4.77;;;;;;;;;;5047366;28;20616;-73
2021/09/24 07:50:06;;;;;;;5.90;5.30;;;;;;;;;;5046779;28;20595;-76
2021/09/24 07:52:32;;;;;;;5.50;5.10;;;;;;;;;;5046587;28;20450;-72
2021/09/24 07:54:59;;;;;;;5.60;5.10;;;;;;;;;;5047257;28;20439;-74
2021/09/24 07:57:25;;;;;;;5.87;4.80;;;;;;;;;;5050245;28;20427;-74
2021/09/24 07:59:51;;;;;;;5.70;5.10;;;;;;;;;;5050086;28;20536;-74
2021/09/24 08:02:17;;;;;;;5.63;5.17;;;;;;;;;;5049958;28;20422;-73
2021/09/24 08:04:43;;;;;;;8.40;5.30;;;;;;;;;;5048597;28;21072;-73
2021/09/24 08:07:09;;;;;;;5.27;4.83;;;;;;;;;;5051455;28;20533;-74
2021/09/24 08:09:36;;;;;;;5.60;4.77;;;;;;;;;;5053485;28;20445;-73
2021/09/24 08:12:02;;;;;;;6.73;5.07;;;;;;;;;;5051793;28;20823;-72
2021/09/24 08:14:28;;;;;;;6.70;6.07;;;;;;;;;;5045913;28;20437;-67
2021/09/24 08:16:54;;;;;;;5.60;5.10;;;;;;;;;;5051455;28;20846;-73
2021/09/24 08:19:20;;;;;;;5.17;4.67;;;;;;;;;;5053636;28;20482;-71
2021/09/24 08:21:46;;;;;;;5.30;4.83;;;;;;;;;;5050037;28;20525;-76
2021/09/24 08:24:12;;;;;;;8.93;4.70;;;;;;;;;;5048359;28;20439;-75
2021/09/24 08:26:38;;;;;;;6.17;5.57;;;;;;;;;;5044048;28;20512;-74
2021/09/24 08:29:04;;;;;;;4.53;4.23;;;;;;;;;;5049946;28;20427;-73
2021/09/24 08:31:30;;;;;;;5.33;4.93;;;;;;;;;;5033976;28;20503;-72
2021/09/24 08:33:58;;;;;;;5.30;4.80;;;;;;;;;;5034875;28;20432;-71
2021/09/24 08:36:25;;;;;;;5.20;4.47;;;;;;;;;;5034504;28;21219;-73
2021/09/24 08:38:51;;;;;;;5.60;4.63;;;;;;;;;;5034838;28;20582;-73
2021/09/24 08:41:19;;;;;;;3.87;3.57;;;;;;;;;;5031995;28;20436;-73
2021/09/24 08:43:48;;;;;;;4.57;4.13;;;;;;;;;;5034612;28;20914;-73
2021/09/24 08:46:18;;;;;;;5.23;4.83;;;;;;;;;;5036242;28;20419;-73
2021/09/24 08:48:47;;;;;;;4.87;4.23;;;;;;;;;;5032475;28;20415;-73
2021/09/24 08:51:13;;;;;;;4.13;3.83;;;;;;;;;;5038672;28;20443;-74
2021/09/24 08:53:39;;;;;;;4.63;4.23;;;;;;;;;;5031966;28;20450;-73
2021/09/24 08:56:05;;;;;;;5.07;4.57;;;;;;;;;;5035625;28;20514;-74
2021/09/24 08:58:32;;;;;;;5.40;4.90;;;;;;;;;;5037169;28;20438;-74
2021/09/24 09:00:58;;;;;;;4.70;4.30;;;;;;;;;;5041778;28;20526;-74
2021/09/24 09:03:24;;;;;;;4.43;4.03;;;;;;;;;;5034553;28;20436;-75
2021/09/24 09:05:52;;;;;;;4.70;4.30;;;;;;;;;;5039995;28;20453;-75
2021/09/24 09:08:19;;;;;;;4.87;3.77;;;;;;;;;;5034932;28;20424;-74
2021/09/24 09:10:52;;;;;;;5.10;4.17;;;;;;;;;;5043627;28;20427;-74
2021/09/24 09:13:19;;;;;;;4.80;4.30;;;;;;;;;;5031742;28;20561;-74
2021/09/24 09:15:52;;;;;;;4.60;4.20;;;;;;;;;;5039206;28;20862;-73
2021/09/24 09:18:18;;;;;;;4.83;4.33;;;;;;;;;;5034196;28;20484;-74
2021/09/24 09:20:45;;;;;;;6.00;4.30;;;;;;;;;;5031943;28;20498;-73
2021/09/24 09:23:11;;;;;;;4.37;3.90;;;;;;;;;;5038350;28;20471;-74
2021/09/24 09:25:39;;;;;;;4.07;3.70;;;;;;;;;;5036813;28;20864;-74
2021/09/24 09:28:07;;;;;;;4.43;4.03;;;;;;;;;;5033239;28;20938;-74
2021/09/24 09:30:33;;;;;;;5.47;3.73;;;;;;;;;;5033682;28;20982;-74
2021/09/24 09:33:02;;;;;;;4.40;4.00;;;;;;;;;;5041530;28;20439;-74
2021/09/24 09:35:28;;;;;;;4.60;4.20;;;;;;;;;;5037910;28;20435;-74
2021/09/24 09:37:55;;;;;;;4.33;3.73;;;;;;;;;;5035538;28;20433;-74
2021/09/24 09:40:21;;;;;;;4.30;3.90;;;;;;;;;;5035645;28;20471;-73
2021/09/24 09:42:48;;;;;;;4.10;3.47;;;;;;;;;;5030162;28;20432;-74
2021/09/24 09:45:15;;;;;;;4.83;3.90;;;;;;;;;;5036668;28;20530;-74
2021/09/24 09:47:43;;;;;;;4.47;3.60;;;;;;;;;;5032753;28;20443;-73
2021/09/24 09:50:10;;;;;;;4.40;2.83;;;;;;;;;;5033207;28;20428;-74
2021/09/24 09:53:07;;;;;;;4.40;3.57;;;;;;;;;;5034864;28;20827;-74
2021/09/24 09:55:37;;;;;;;3.97;3.67;;;;;;;;;;5040711;28;22286;-74
2021/09/24 09:58:06;;;;;;;4.80;3.50;;;;;;;;;;5034716;28;20619;-74
2021/09/24 10:00:33;;;;;;;3.40;3.10;;;;;;;;;;5036275;28;20482;-73
2021/09/24 10:03:10;;;;;;;3.03;2.83;;;;;;;;;;5035825;28;20462;-74
2021/09/24 10:05:41;;;;;;;2.83;2.50;;;;;;;;;;5034775;28;20916;-74
2021/09/24 10:08:21;;;;;;;2.93;2.73;;;;;;;;;;5036440;28;20450;-74
2021/09/24 10:10:54;;;;;;;2.90;2.70;;;;;;;;;;5034338;28;20431;-74
2021/09/24 10:15:41;;;;;;;3.73;3.43;;;;;;;;;;5049322;28;20577;-73
2021/09/24 10:18:06;;;;;;;4.90;3.10;;;;;;;;;;5047394;28;20450;-73
2021/09/24 10:20:32;;;;;;;3.70;3.40;;;;;;;;;;5047052;28;20435;-73
2021/09/24 10:22:58;;;;;;;3.40;3.10;;;;;;;;;;5046945;28;20427;-75
2021/09/24 10:25:24;;;;;;;3.53;3.03;;;;;;;;;;5046954;28;20511;-73
2021/09/24 10:27:51;;;;;;;4.50;4.10;;;;;;;;;;5045321;28;20492;-72
2021/09/24 10:30:18;;;;;;;3.00;2.77;;;;;;;;;;5046483;28;20496;-73
2021/09/24 10:32:55;;;;;;;3.50;3.13;;;;;;;;;;5041375;28;20450;-73
2021/09/24 10:35:21;;;;;;;4.13;3.77;;;;;;;;;;5044918;28;20676;-72
2021/09/24 10:37:48;;;;;;;3.90;3.07;;;;;;;;;;5045012;28;20439;-73
2021/09/24 10:40:20;;;;;;;4.00;3.47;;;;;;;;;;5046583;28;20491;-72
2021/09/24 10:42:56;;;;;;;4.07;3.67;;;;;;;;;;5044328;28;20507;-72
2021/09/24 10:45:33;;;;;;;4.00;2.90;;;;;;;;;;5045975;28;20435;-72
2021/09/24 10:48:02;;;;;;;4.20;3.10;;;;;;;;;;5031519;28;20423;-73
2021/09/24 10:50:30;;;;;;;5.43;3.30;;;;;;;;;;5043589;28;21007;-73
2021/09/24 10:53:09;;;;;;;3.20;3.00;;;;;;;;;;5046157;28;20496;-72
2021/09/24 10:55:36;;;;;;;3.53;2.90;;;;;;;;;;5045129;28;20439;-72
2021/09/24 10:58:02;;;;;;;2.97;2.77;;;;;;;;;;5045564;28;20513;-72
2021/09/24 11:00:30;;;;;;;3.33;3.03;;;;;;;;;;5045616;28;20521;-73
2021/09/24 11:03:15;;;;;;;3.50;3.30;;;;;;;;;;5044735;28;20461;-72
2021/09/24 11:06:03;;;;;;;4.70;3.43;;;;;;;;;;5044799;28;20539;-71
2021/09/24 11:08:32;;;;;;;3.90;3.40;;;;;;;;;;5044299;28;20431;-72
2021/09/24 11:11:16;;;;;;;3.70;3.40;;;;;;;;;;5043299;28;20419;-73
2021/09/24 11:13:44;;;;;;;3.57;3.10;;;;;;;;;;5045230;28;20505;-72
2021/09/24 11:16:14;;;;;;;3.63;3.33;;;;;;;;;;5040736;28;20479;-68
2021/09/24 11:18:47;;;;;;;3.00;2.80;;;;;;;;;;5042800;28;20430;-72
2021/09/24 11:21:13;;;;;;;4.17;2.83;;;;;;;;;;5045041;28;20447;-72
2021/09/24 11:23:39;;;;;;;4.00;3.70;;;;;;;;;;5044511;28;20427;-72
2021/09/24 11:26:09;;;;;;;3.43;3.03;;;;;;;;;;5036889;28;20439;-71
2021/09/24 11:28:35;;;;;;;3.37;3.17;;;;;;;;;;5029701;28;20817;-72
2021/09/24 11:31:01;;;;;;;4.23;2.23;;;;;;;;;;5030484;28;20451;-72
2021/09/24 11:33:47;;;;;;;3.23;3.03;;;;;;;;;;5030724;28;20924;-73
2021/09/24 11:36:14;;;;;;;3.10;2.67;;;;;;;;;;5030115;28;20431;-73
2021/09/24 11:38:40;;;;;;;2.93;2.73;;;;;;;;;;5031593;28;20914;-73
2021/09/24 11:41:06;;;;;;;2.97;2.73;;;;;;;;;;5031383;28;20446;-73
2021/09/24 11:43:34;;;;;;;3.23;2.93;;;;;;;;;;5031978;28;20419;-72
2021/09/24 11:46:01;;;;;;;2.60;2.40;;;;;;;;;;5030297;28;20893;-72
2021/09/24 11:48:29;;;;;;;4.20;2.97;;;;;;;;;;5033008;28;20952;-72
2021/09/24 11:50:56;;;;;;;4.03;3.27;;;;;;;;;;5031897;28;20438;-71
2021/09/24 11:53:22;;;;;;;5.10;2.90;;;;;;;;;;5031725;28;20424;-72
2021/09/24 11:55:48;;;;;;;2.90;2.70;;;;;;;;;;5031997;28;20435;-71
2021/09/24 11:58:21;;;;;;;2.60;2.40;;;;;;;;;;5031267;28;20430;-71
2021/09/24 12:00:54;;;;;;;3.20;3.00;;;;;;;;;;5028302;28;20787;-74
2021/09/24 12:03:20;;;;;;;3.20;3.00;;;;;;;;;;5030513;28;20444;-73
2021/09/24 12:05:55;;;;;;;3.17;2.87;;;;;;;;;;5029931;28;20524;-74
2021/09/24 12:08:45;;;;;;;3.07;2.87;;;;;;;;;;5030758;28;20482;-74
2021/09/24 12:11:18;;;;;;;3.47;3.10;;;;;;;;;;5037903;28;20767;-74
2021/09/24 12:13:46;;;;;;;3.40;3.10;;;;;;;;;;5031612;28;20578;-74
2021/09/24 12:16:22;;;;;;;3.00;2.80;;;;;;;;;;5031136;28;20439;-74
2021/09/24 12:18:53;;;;;;;3.47;3.20;;;;;;;;;;5031388;28;20458;-75
2021/09/24 12:21:22;;;;;;;4.03;2.97;;;;;;;;;;5031428;28;20448;-75
2021/09/24 12:23:48;;;;;;;3.20;3.00;;;;;;;;;;5031417;28;20436;-75
2021/09/24 12:26:15;;;;;;;3.70;3.30;;;;;;;;;;5030743;28;20431;-75
2021/09/24 12:28:55;;;;;;;3.30;3.00;;;;;;;;;;5031544;28;20432;-75
2021/09/24 12:31:41;;;;;;;4.83;3.00;;;;;;;;;;5030882;28;20438;-75
2021/09/24 12:34:08;;;;;;;4.03;3.17;;;;;;;;;;5020060;28;20487;-74
2021/09/24 12:36:34;;;;;;;4.10;3.80;;;;;;;;;;5030925;28;20461;-74
2021/09/24 12:39:13;;;;;;;3.10;2.80;;;;;;;;;;5029028;28;20440;-74
2021/09/24 12:41:40;;;;;;;3.30;3.10;;;;;;;;;;5029956;28;20466;-74
2021/09/24 12:44:06;;;;;;;2.97;2.73;;;;;;;;;;5030969;28;20915;-74
2021/09/24 12:46:47;;;;;;;3.63;3.33;;;;;;;;;;5030772;28;20446;-75
2021/09/24 12:49:13;;;;;;;3.77;3.47;;;;;;;;;;5030901;28;20530;-74
2021/09/24 12:51:39;;;;;;;4.03;3.43;;;;;;;;;;5030884;28;20450;-75
2021/09/24 12:54:05;;;;;;;4.10;3.73;;;;;;;;;;5031181;28;20846;-75
2021/09/24 12:56:34;;;;;;;3.30;3.00;;;;;;;;;;5030343;28;20447;-74
2021/09/24 12:59:02;;;;;;;3.63;3.33;;;;;;;;;;5030538;28;20727;-74
2021/09/24 13:01:28;;;;;;;3.97;3.50;;;;;;;;;;5030154;28;20790;-74
2021/09/24 13:03:54;;;;;;;4.63;3.80;;;;;;;;;;5030787;28;20428;-74
2021/09/24 13:06:22;;;;;;;4.40;3.90;;;;;;;;;;5029345;28;20443;-74
2021/09/24 13:08:49;;;;;;;4.90;4.40;;;;;;;;;;5030071;28;20922;-73
2021/09/24 13:11:20;;;;;;;3.80;3.50;;;;;;;;;;5029712;28;20450;-74
2021/09/24 13:13:48;;;;;;;3.90;3.60;;;;;;;;;;5028536;28;20495;-73
2021/09/24 13:16:14;;;;;;;4.50;4.10;;;;;;;;;;5029653;28;20439;-75
2021/09/24 13:18:40;;;;;;;4.00;3.70;;;;;;;;;;5025155;28;20446;-74
2021/09/24 13:21:06;;;;;;;3.77;3.47;;;;;;;;;;5028419;28;20521;-74
2021/09/24 13:23:32;;;;;;;4.83;4.43;;;;;;;;;;5027502;28;20467;-75
2021/09/24 13:25:59;;;;;;;4.43;3.80;;;;;;;;;;5028802;28;20443;-73
2021/09/24 13:28:26;;;;;;;4.30;3.90;;;;;;;;;;5027685;28;20424;-73
2021/09/24 13:30:52;;;;;;;6.03;4.33;;;;;;;;;;5027574;28;20439;-73
2021/09/24 13:33:18;;;;;;;4.53;4.23;;;;;;;;;;5029339;28;20432;-73
2021/09/24 13:35:44;;;;;;;3.97;3.57;;;;;;;;;;5026907;28;20915;-71
2021/09/24 13:38:11;;;;;;;3.57;3.27;;;;;;;;;;5028615;28;20483;-72
2021/09/24 13:40:37;;;;;;;4.03;3.67;;;;;;;;;;5030271;28;20463;-72
2021/09/24 13:43:04;;;;;;;4.17;3.77;;;;;;;;;;5029197;28;20447;-70
2021/09/24 13:45:30;;;;;;;5.17;4.07;;;;;;;;;;5029297;28;20672;-72
2021/09/24 13:47:56;;;;;;;4.27;3.97;;;;;;;;;;5029602;28;20550;-72
2021/09/24 13:50:22;;;;;;;4.30;4.00;;;;;;;;;;5029663;28;20478;-72
2021/09/24 13:52:48;;;;;;;4.37;3.97;;;;;;;;;;5029368;28;20486;-71
2021/09/24 13:55:14;;;;;;;4.07;3.77;;;;;;;;;;5029241;28;21062;-72
2021/09/24 13:57:40;;;;;;;5.67;3.87;;;;;;;;;;5029209;28;20945;-74
2021/09/24 14:00:06;;;;;;;4.60;4.00;;;;;;;;;;5027578;28;20435;-73
2021/09/24 14:02:32;;;;;;;3.80;3.50;;;;;;;;;;5025977;28;20440;-73
2021/09/24 14:04:58;;;;;;;3.67;3.30;;;;;;;;;;5024262;28;20945;-72
2021/09/24 14:07:24;;;;;;;4.10;3.80;;;;;;;;;;5026386;28;20443;-72
2021/09/24 14:09:50;;;;;;;4.03;3.67;;;;;;;;;;5028893;28;20450;-72
2021/09/24 14:12:16;;;;;;;4.80;4.27;;;;;;;;;;5028545;28;20435;-71
2021/09/24 14:14:43;;;;;;;4.40;4.10;;;;;;;;;;5028875;28;20580;-71
2021/09/24 14:17:09;;;;;;;5.07;3.77;;;;;;;;;;5029095;28;20459;-71
2021/09/24 14:19:35;;;;;;;4.03;3.67;;;;;;;;;;5029515;28;20434;-71
2021/09/24 14:22:01;;;;;;;5.63;3.30;;;;;;;;;;5029027;28;20474;-72
2021/09/24 14:24:27;;;;;;;4.30;3.90;;;;;;;;;;5029130;28;20436;-71
2021/09/24 14:26:53;;;;;;;4.20;3.90;;;;;;;;;;5028425;28;20439;-72
2021/09/24 14:29:21;;;;;;;3.80;3.40;;;;;;;;;;5028820;28;20577;-71
2021/09/24 14:31:48;;;;;;;4.17;3.73;;;;;;;;;;5028936;28;20435;-73
2021/09/24 14:34:17;;;;;;;5.30;3.73;;;;;;;;;;5028936;28;20475;-70
2021/09/24 14:36:44;;;;;;;3.70;3.40;;;;;;;;;;5027686;28;20424;-70
2021/09/24 14:39:11;;;;;;;3.63;3.33;;;;;;;;;;5028509;28;20428;-71
2021/09/24 14:41:37;;;;;;;4.10;3.20;;;;;;;;;;5028838;28;20474;-75
2021/09/24 14:44:03;;;;;;;3.30;3.10;;;;;;;;;;5029115;28;20439;-74
2021/09/24 14:46:29;;;;;;;3.90;3.37;;;;;;;;;;5028813;28;20438;-75
2021/09/24 14:48:55;;;;;;;4.20;3.80;;;;;;;;;;5029143;28;20522;-74